sensor_id;sensor_type;location;lat;lon;timestamp;temperature;humidity
49441;DHT22;35317;51.978;6.296;2023-01-15T00:04:51;8.20;99.90
49441;DHT22;35317;51.978;6.296;2023-01-15T00:09:51;8.10;99.90
49441;DHT22;35317;51.978;6.296;2023-01-15T00:14:52;8.10;99.90
49441;DHT22;35317;51.978;6.296;2023-01-15T00:19:53;8.00;99.90
49441;DHT22;35317;51.978;6.296;2023-01-15T00:24:54;8.10;99.90
49441;DHT22;35317;51.978;6.296;2023-01-15T00:30:15;7.90;99.90
49441;DHT22;35317;51.978;6.296;2023-01-15T00:35:19;8.00;99.90
49441;DHT22;35317;51.978;6.296;2023-01-15T00:40:21;7.90;99.90
49441;DHT22;35317;51.978;6.296;2023-01-15T00:45:22;7.90;99.90
49441;DHT22;35317;51.978;6.296;2023-01-15T00:50:23;7.90;99.90
49441;DHT22;35317;51.978;6.296;2023-01-15T00:55:23;7.90;99.90
49441;DHT22;35317;51.978;6.296;2023-01-15T01:00:25;7.80;99.90
49441;DHT22;35317;51.978;6.296;2023-01-15T01:05:25;7.80;99.90
49441;DHT22;35317;51.978;6.296;2023-01-15T01:10:27;7.80;99.90
49441;DHT22;35317;51.978;6.296;2023-01-15T01:15:27;7.80;99.90
49441;DHT22;35317;51.978;6.296;2023-01-15T01:20:28;7.80;99.90
49441;DHT22;35317;51.978;6.296;2023-01-15T01:25:29;7.80;99.90
49441;DHT22;35317;51.978;6.296;2023-01-15T01:30:30;7.80;99.90
49441;DHT22;35317;51.978;6.296;2023-01-15T01:35:30;7.80;99.90
49441;DHT22;35317;51.978;6.296;2023-01-15T01:40:31;7.80;99.90
49441;DHT22;35317;51.978;6.296;2023-01-15T01:45:32;7.80;99.90
49441;DHT22;35317;51.978;6.296;2023-01-15T01:50:34;7.70;99.90
49441;DHT22;35317;51.978;6.296;2023-01-15T01:55:36;7.80;99.90
49441;DHT22;35317;51.978;6.296;2023-01-15T02:00:40;7.70;99.90
49441;DHT22;35317;51.978;6.296;2023-01-15T02:05:46;7.70;99.90
49441;DHT22;35317;51.978;6.296;2023-01-15T02:10:54;7.70;99.90
49441;DHT22;35317;51.978;6.296;2023-01-15T02:16:06;7.60;99.90
49441;DHT22;35317;51.978;6.296;2023-01-15T02:21:13;7.60;99.90
49441;DHT22;35317;51.978;6.296;2023-01-15T02:26:57;7.60;99.90
49441;DHT22;35317;51.978;6.296;2023-01-15T02:32:01;7.50;99.90
49441;DHT22;35317;51.978;6.296;2023-01-15T02:37:09;7.50;99.90
49441;DHT22;35317;51.978;6.296;2023-01-15T02:42:14;7.50;99.90
49441;DHT22;35317;51.978;6.296;2023-01-15T02:47:19;7.40;99.90
49441;DHT22;35317;51.978;6.296;2023-01-15T02:52:27;7.40;99.90
49441;DHT22;35317;51.978;6.296;2023-01-15T02:57:33;7.30;99.90
49441;DHT22;35317;51.978;6.296;2023-01-15T03:02:48;7.20;99.90
49441;DHT22;35317;51.978;6.296;2023-01-15T03:07:57;7.20;99.90
49441;DHT22;35317;51.978;6.296;2023-01-15T03:13:00;7.20;99.90
49441;DHT22;35317;51.978;6.296;2023-01-15T03:18:03;7.20;99.90
49441;DHT22;35317;51.978;6.296;2023-01-15T03:23:09;7.10;99.90
49441;DHT22;35317;51.978;6.296;2023-01-15T03:28:11;7.10;99.90
49441;DHT22;35317;51.978;6.296;2023-01-15T03:33:13;7.10;99.90
49441;DHT22;35317;51.978;6.296;2023-01-15T03:38:18;7.10;99.90
49441;DHT22;35317;51.978;6.296;2023-01-15T03:49:24;7.10;99.90
49441;DHT22;35317;51.978;6.296;2023-01-15T03:54:38;7.10;99.90
49441;DHT22;35317;51.978;6.296;2023-01-15T03:59:50;7.10;99.90
49441;DHT22;35317;51.978;6.296;2023-01-15T04:04:55;7.10;99.90
49441;DHT22;35317;51.978;6.296;2023-01-15T04:09:57;7.10;99.90
49441;DHT22;35317;51.978;6.296;2023-01-15T04:14:58;7.00;99.90
49441;DHT22;35317;51.978;6.296;2023-01-15T04:19:59;7.00;99.90
49441;DHT22;35317;51.978;6.296;2023-01-15T04:24:59;7.00;99.90
49441;DHT22;35317;51.978;6.296;2023-01-15T04:30:00;7.00;99.90
49441;DHT22;35317;51.978;6.296;2023-01-15T04:35:01;7.00;99.90
49441;DHT22;35317;51.978;6.296;2023-01-15T04:40:02;7.00;99.90
49441;DHT22;35317;51.978;6.296;2023-01-15T04:45:03;6.90;99.90
49441;DHT22;35317;51.978;6.296;2023-01-15T04:50:04;6.90;99.90
49441;DHT22;35317;51.978;6.296;2023-01-15T04:55:06;6.90;99.90
49441;DHT22;35317;51.978;6.296;2023-01-15T05:00:07;6.90;99.90
49441;DHT22;35317;51.978;6.296;2023-01-15T05:05:09;6.80;99.90
49441;DHT22;35317;51.978;6.296;2023-01-15T05:10:10;6.80;99.90
49441;DHT22;35317;51.978;6.296;2023-01-15T05:15:11;6.80;99.90
49441;DHT22;35317;51.978;6.296;2023-01-15T05:20:12;6.80;99.90
49441;DHT22;35317;51.978;6.296;2023-01-15T05:25:14;6.70;99.90
49441;DHT22;35317;51.978;6.296;2023-01-15T05:30:15;6.70;99.90
49441;DHT22;35317;51.978;6.296;2023-01-15T05:35:16;6.70;99.90
49441;DHT22;35317;51.978;6.296;2023-01-15T05:40:17;6.70;99.90
49441;DHT22;35317;51.978;6.296;2023-01-15T05:45:17;6.70;99.90
49441;DHT22;35317;51.978;6.296;2023-01-15T05:50:18;6.80;99.90
49441;DHT22;35317;51.978;6.296;2023-01-15T05:55:19;6.70;99.90
49441;DHT22;35317;51.978;6.296;2023-01-15T06:00:20;6.70;99.90
49441;DHT22;35317;51.978;6.296;2023-01-15T06:05:21;6.70;99.90
49441;DHT22;35317;51.978;6.296;2023-01-15T06:10:22;6.70;99.90
49441;DHT22;35317;51.978;6.296;2023-01-15T06:15:22;6.60;99.90
49441;DHT22;35317;51.978;6.296;2023-01-15T06:20:23;6.60;99.90
49441;DHT22;35317;51.978;6.296;2023-01-15T06:25:24;6.60;99.90
49441;DHT22;35317;51.978;6.296;2023-01-15T06:30:25;6.50;99.90
49441;DHT22;35317;51.978;6.296;2023-01-15T06:35:26;6.50;99.90
49441;DHT22;35317;51.978;6.296;2023-01-15T06:40:26;6.50;99.90
49441;DHT22;35317;51.978;6.296;2023-01-15T06:45:35;6.50;99.90
49441;DHT22;35317;51.978;6.296;2023-01-15T06:50:56;6.50;99.90
49441;DHT22;35317;51.978;6.296;2023-01-15T06:55:57;6.50;99.90
49441;DHT22;35317;51.978;6.296;2023-01-15T07:00:57;6.50;99.90
49441;DHT22;35317;51.978;6.296;2023-01-15T07:05:58;6.40;99.90
49441;DHT22;35317;51.978;6.296;2023-01-15T07:11:04;6.40;99.90
49441;DHT22;35317;51.978;6.296;2023-01-15T07:16:06;6.30;99.90
49441;DHT22;35317;51.978;6.296;2023-01-15T07:21:26;6.30;99.90
49441;DHT22;35317;51.978;6.296;2023-01-15T07:26:26;6.30;99.90
49441;DHT22;35317;51.978;6.296;2023-01-15T07:31:27;6.30;99.90
49441;DHT22;35317;51.978;6.296;2023-01-15T07:36:28;6.40;99.90
49441;DHT22;35317;51.978;6.296;2023-01-15T07:41:29;6.40;99.90
49441;DHT22;35317;51.978;6.296;2023-01-15T07:46:48;6.40;99.90
49441;DHT22;35317;51.978;6.296;2023-01-15T07:52:07;6.40;99.90
49441;DHT22;35317;51.978;6.296;2023-01-15T07:57:09;6.40;99.90
49441;DHT22;35317;51.978;6.296;2023-01-15T08:02:10;6.30;99.90
49441;DHT22;35317;51.978;6.296;2023-01-15T08:07:13;6.20;99.90
49441;DHT22;35317;51.978;6.296;2023-01-15T08:12:14;6.20;99.90
49441;DHT22;35317;51.978;6.296;2023-01-15T08:17:37;6.20;99.90
49441;DHT22;35317;51.978;6.296;2023-01-15T08:22:39;6.30;99.90
49441;DHT22;35317;51.978;6.296;2023-01-15T08:27:41;6.40;99.90
49441;DHT22;35317;51.978;6.296;2023-01-15T08:32:59;6.40;99.90
49441;DHT22;35317;51.978;6.296;2023-01-15T08:38:05;6.40;99.90
49441;DHT22;35317;51.978;6.296;2023-01-15T08:43:06;6.30;99.90
49441;DHT22;35317;51.978;6.296;2023-01-15T08:48:21;6.40;99.90
49441;DHT22;35317;51.978;6.296;2023-01-15T08:53:22;6.30;99.90
49441;DHT22;35317;51.978;6.296;2023-01-15T08:58:23;6.40;99.90
49441;DHT22;35317;51.978;6.296;2023-01-15T09:03:29;6.40;99.90
49441;DHT22;35317;51.978;6.296;2023-01-15T09:08:30;6.40;99.90
49441;DHT22;35317;51.978;6.296;2023-01-15T09:13:31;6.50;99.60
49441;DHT22;35317;51.978;6.296;2023-01-15T09:18:32;6.50;99.50
49441;DHT22;35317;51.978;6.296;2023-01-15T09:23:35;6.50;99.30
49441;DHT22;35317;51.978;6.296;2023-01-15T09:28:35;6.60;99.10
49441;DHT22;35317;51.978;6.296;2023-01-15T09:33:36;6.60;98.60
49441;DHT22;35317;51.978;6.296;2023-01-15T09:38:37;6.80;98.20
49441;DHT22;35317;51.978;6.296;2023-01-15T09:43:49;6.80;98.00
49441;DHT22;35317;51.978;6.296;2023-01-15T09:54:16;6.90;97.50
49441;DHT22;35317;51.978;6.296;2023-01-15T09:59:28;6.90;97.20
49441;DHT22;35317;51.978;6.296;2023-01-15T10:04:39;7.00;97.20
49441;DHT22;35317;51.978;6.296;2023-01-15T10:09:49;7.00;96.90
49441;DHT22;35317;51.978;6.296;2023-01-15T10:20:02;7.20;96.80
49441;DHT22;35317;51.978;6.296;2023-01-15T10:25:12;7.30;96.40
49441;DHT22;35317;51.978;6.296;2023-01-15T10:30:35;7.30;96.30
49441;DHT22;35317;51.978;6.296;2023-01-15T10:36:06;7.40;96.10
49441;DHT22;35317;51.978;6.296;2023-01-15T10:46:57;7.50;95.90
49441;DHT22;35317;51.978;6.296;2023-01-15T10:52:24;7.60;95.80
49441;DHT22;35317;51.978;6.296;2023-01-15T10:57:45;7.70;95.70
49441;DHT22;35317;51.978;6.296;2023-01-15T11:03:00;7.70;95.40
49441;DHT22;35317;51.978;6.296;2023-01-15T11:08:09;7.80;95.10
49441;DHT22;35317;51.978;6.296;2023-01-15T11:13:23;8.00;94.60
49441;DHT22;35317;51.978;6.296;2023-01-15T11:18:44;8.10;94.10
49441;DHT22;35317;51.978;6.296;2023-01-15T11:24:15;8.20;93.60
49441;DHT22;35317;51.978;6.296;2023-01-15T11:29:34;8.30;93.30
49441;DHT22;35317;51.978;6.296;2023-01-15T11:34:37;8.40;92.50
49441;DHT22;35317;51.978;6.296;2023-01-15T11:39:39;8.50;92.50
49441;DHT22;35317;51.978;6.296;2023-01-15T11:44:54;8.40;92.40
49441;DHT22;35317;51.978;6.296;2023-01-15T11:50:18;8.40;92.60
49441;DHT22;35317;51.978;6.296;2023-01-15T11:55:37;8.30;93.10
49441;DHT22;35317;51.978;6.296;2023-01-15T12:00:41;8.30;93.40
49441;DHT22;35317;51.978;6.296;2023-01-15T12:05:54;8.30;93.50
49441;DHT22;35317;51.978;6.296;2023-01-15T12:11:23;8.50;93.40
49441;DHT22;35317;51.978;6.296;2023-01-15T12:16:46;8.60;93.10
49441;DHT22;35317;51.978;6.296;2023-01-15T12:32:45;8.50;93.00
49441;DHT22;35317;51.978;6.296;2023-01-15T12:38:15;8.70;92.80
49441;DHT22;35317;51.978;6.296;2023-01-15T12:43:25;8.80;92.30
49441;DHT22;35317;51.978;6.296;2023-01-15T12:48:53;8.80;92.20
49441;DHT22;35317;51.978;6.296;2023-01-15T12:54:04;8.90;92.30
49441;DHT22;35317;51.978;6.296;2023-01-15T12:59:23;8.90;92.00
49441;DHT22;35317;51.978;6.296;2023-01-15T13:04:52;8.70;92.80
49441;DHT22;35317;51.978;6.296;2023-01-15T13:10:19;8.60;93.10
49441;DHT22;35317;51.978;6.296;2023-01-15T13:15:27;8.40;93.40
49441;DHT22;35317;51.978;6.296;2023-01-15T13:20:46;8.40;93.70
49441;DHT22;35317;51.978;6.296;2023-01-15T13:36:40;8.50;93.90
49441;DHT22;35317;51.978;6.296;2023-01-15T13:41:46;8.60;93.70
49441;DHT22;35317;51.978;6.296;2023-01-15T13:47:10;8.70;93.50
49441;DHT22;35317;51.978;6.296;2023-01-15T13:52:23;8.60;93.30
49441;DHT22;35317;51.978;6.296;2023-01-15T13:57:35;8.60;93.50
49441;DHT22;35317;51.978;6.296;2023-01-15T14:02:38;8.60;93.40
49441;DHT22;35317;51.978;6.296;2023-01-15T14:07:40;8.60;93.30
49441;DHT22;35317;51.978;6.296;2023-01-15T14:13:12;8.50;93.40
49441;DHT22;35317;51.978;6.296;2023-01-15T14:18:27;8.40;93.90
49441;DHT22;35317;51.978;6.296;2023-01-15T14:23:42;8.20;94.90
49441;DHT22;35317;51.978;6.296;2023-01-15T14:29:03;8.00;95.40
49441;DHT22;35317;51.978;6.296;2023-01-15T14:34:26;7.90;96.80
49441;DHT22;35317;51.978;6.296;2023-01-15T14:39:47;7.70;97.40
49441;DHT22;35317;51.978;6.296;2023-01-15T14:45:05;7.50;98.40
49441;DHT22;35317;51.978;6.296;2023-01-15T14:50:31;7.50;98.90
49441;DHT22;35317;51.978;6.296;2023-01-15T14:55:37;7.40;99.60
49441;DHT22;35317;51.978;6.296;2023-01-15T15:00:45;7.50;99.70
49441;DHT22;35317;51.978;6.296;2023-01-15T15:05:50;7.40;99.90
49441;DHT22;35317;51.978;6.296;2023-01-15T15:10:53;7.30;99.90
49441;DHT22;35317;51.978;6.296;2023-01-15T15:16:24;7.20;99.90
49441;DHT22;35317;51.978;6.296;2023-01-15T15:21:37;7.20;99.90
49441;DHT22;35317;51.978;6.296;2023-01-15T15:26:40;7.20;99.90
49441;DHT22;35317;51.978;6.296;2023-01-15T15:31:49;7.10;99.90
49441;DHT22;35317;51.978;6.296;2023-01-15T15:36:58;7.20;99.90
49441;DHT22;35317;51.978;6.296;2023-01-15T15:42:06;7.20;99.90
49441;DHT22;35317;51.978;6.296;2023-01-15T15:47:38;7.20;99.90
49441;DHT22;35317;51.978;6.296;2023-01-15T15:52:58;7.10;99.90
49441;DHT22;35317;51.978;6.296;2023-01-15T15:58:04;7.00;99.90
49441;DHT22;35317;51.978;6.296;2023-01-15T16:03:21;6.80;99.90
49441;DHT22;35317;51.978;6.296;2023-01-15T16:08:23;6.70;99.90
49441;DHT22;35317;51.978;6.296;2023-01-15T16:13:40;6.60;99.90
49441;DHT22;35317;51.978;6.296;2023-01-15T16:18:49;6.50;99.90
49441;DHT22;35317;51.978;6.296;2023-01-15T16:23:59;6.40;99.90
49441;DHT22;35317;51.978;6.296;2023-01-15T16:29:12;6.30;99.90
49441;DHT22;35317;51.978;6.296;2023-01-15T16:34:31;6.30;99.90
49441;DHT22;35317;51.978;6.296;2023-01-15T16:39:43;6.40;99.90
49441;DHT22;35317;51.978;6.296;2023-01-15T16:44:51;6.40;99.90
49441;DHT22;35317;51.978;6.296;2023-01-15T17:00:33;6.50;99.90
49441;DHT22;35317;51.978;6.296;2023-01-15T17:05:34;6.60;99.90
49441;DHT22;35317;51.978;6.296;2023-01-15T17:10:36;6.60;99.90
49441;DHT22;35317;51.978;6.296;2023-01-15T17:15:38;6.70;99.90
49441;DHT22;35317;51.978;6.296;2023-01-15T17:20:40;6.70;99.90
49441;DHT22;35317;51.978;6.296;2023-01-15T17:25:40;6.60;99.90
49441;DHT22;35317;51.978;6.296;2023-01-15T17:30:41;6.60;99.90
49441;DHT22;35317;51.978;6.296;2023-01-15T17:35:42;6.60;99.90
49441;DHT22;35317;51.978;6.296;2023-01-15T17:40:45;6.60;99.90
49441;DHT22;35317;51.978;6.296;2023-01-15T17:45:46;6.50;99.90
49441;DHT22;35317;51.978;6.296;2023-01-15T17:50:47;6.50;99.90
49441;DHT22;35317;51.978;6.296;2023-01-15T17:55:47;6.40;99.90
49441;DHT22;35317;51.978;6.296;2023-01-15T18:01:17;6.40;99.90
49441;DHT22;35317;51.978;6.296;2023-01-15T18:06:40;6.30;99.90
49441;DHT22;35317;51.978;6.296;2023-01-15T18:11:42;6.30;99.90
49441;DHT22;35317;51.978;6.296;2023-01-15T18:16:43;6.30;99.90
49441;DHT22;35317;51.978;6.296;2023-01-15T18:21:44;6.30;99.90
49441;DHT22;35317;51.978;6.296;2023-01-15T18:26:45;6.20;99.90
49441;DHT22;35317;51.978;6.296;2023-01-15T18:31:46;6.20;99.90
49441;DHT22;35317;51.978;6.296;2023-01-15T18:36:47;6.20;99.90
49441;DHT22;35317;51.978;6.296;2023-01-15T18:41:48;6.20;99.90
49441;DHT22;35317;51.978;6.296;2023-01-15T18:46:52;6.10;99.90
49441;DHT22;35317;51.978;6.296;2023-01-15T18:51:55;6.10;99.90
49441;DHT22;35317;51.978;6.296;2023-01-15T18:57:14;6.00;99.90
49441;DHT22;35317;51.978;6.296;2023-01-15T19:02:17;6.00;99.90
49441;DHT22;35317;51.978;6.296;2023-01-15T19:07:19;6.00;99.90
49441;DHT22;35317;51.978;6.296;2023-01-15T19:12:19;5.90;99.90
49441;DHT22;35317;51.978;6.296;2023-01-15T19:17:22;5.80;99.90
49441;DHT22;35317;51.978;6.296;2023-01-15T19:22:43;5.80;99.90
49441;DHT22;35317;51.978;6.296;2023-01-15T19:27:59;5.90;99.90
49441;DHT22;35317;51.978;6.296;2023-01-15T19:33:00;5.80;99.90
49441;DHT22;35317;51.978;6.296;2023-01-15T19:38:01;5.80;99.90
49441;DHT22;35317;51.978;6.296;2023-01-15T19:43:02;5.80;99.90
49441;DHT22;35317;51.978;6.296;2023-01-15T19:48:22;5.80;99.90
49441;DHT22;35317;51.978;6.296;2023-01-15T19:53:41;5.80;99.90
49441;DHT22;35317;51.978;6.296;2023-01-15T19:58:41;5.80;99.90
49441;DHT22;35317;51.978;6.296;2023-01-15T20:03:42;5.80;99.90
49441;DHT22;35317;51.978;6.296;2023-01-15T20:08:43;5.80;99.90
49441;DHT22;35317;51.978;6.296;2023-01-15T20:13:44;5.80;99.90
49441;DHT22;35317;51.978;6.296;2023-01-15T20:18:52;5.80;99.90
49441;DHT22;35317;51.978;6.296;2023-01-15T20:23:54;5.80;99.90
49441;DHT22;35317;51.978;6.296;2023-01-15T20:28:55;5.80;99.90
49441;DHT22;35317;51.978;6.296;2023-01-15T20:33:56;5.70;99.90
49441;DHT22;35317;51.978;6.296;2023-01-15T20:39:01;5.70;99.90
49441;DHT22;35317;51.978;6.296;2023-01-15T20:44:02;5.70;99.90
49441;DHT22;35317;51.978;6.296;2023-01-15T20:49:21;5.80;99.90
49441;DHT22;35317;51.978;6.296;2023-01-15T20:54:26;5.80;99.90
49441;DHT22;35317;51.978;6.296;2023-01-15T20:59:27;5.80;99.90
49441;DHT22;35317;51.978;6.296;2023-01-15T21:04:28;5.80;99.90
49441;DHT22;35317;51.978;6.296;2023-01-15T21:09:29;5.80;99.90
49441;DHT22;35317;51.978;6.296;2023-01-15T21:14:30;5.90;99.90
49441;DHT22;35317;51.978;6.296;2023-01-15T21:19:31;6.00;99.90
49441;DHT22;35317;51.978;6.296;2023-01-15T21:24:32;6.00;99.90
49441;DHT22;35317;51.978;6.296;2023-01-15T21:29:33;6.10;99.90
49441;DHT22;35317;51.978;6.296;2023-01-15T21:34:34;6.10;99.90
49441;DHT22;35317;51.978;6.296;2023-01-15T21:39:35;6.10;99.90
49441;DHT22;35317;51.978;6.296;2023-01-15T21:44:37;6.10;99.90
49441;DHT22;35317;51.978;6.296;2023-01-15T21:49:43;6.10;99.90
49441;DHT22;35317;51.978;6.296;2023-01-15T21:54:44;6.10;99.90
49441;DHT22;35317;51.978;6.296;2023-01-15T21:59:45;6.00;99.90
49441;DHT22;35317;51.978;6.296;2023-01-15T22:04:46;6.00;99.90
49441;DHT22;35317;51.978;6.296;2023-01-15T22:09:47;5.90;99.90
49441;DHT22;35317;51.978;6.296;2023-01-15T22:14:48;5.90;99.90
49441;DHT22;35317;51.978;6.296;2023-01-15T22:19:49;5.90;99.90
49441;DHT22;35317;51.978;6.296;2023-01-15T22:24:50;5.80;99.90
49441;DHT22;35317;51.978;6.296;2023-01-15T22:29:51;5.70;99.90
49441;DHT22;35317;51.978;6.296;2023-01-15T22:34:52;5.70;99.90
49441;DHT22;35317;51.978;6.296;2023-01-15T22:39:52;5.60;99.90
49441;DHT22;35317;51.978;6.296;2023-01-15T22:44:54;5.60;99.90
49441;DHT22;35317;51.978;6.296;2023-01-15T22:49:56;5.60;99.90
49441;DHT22;35317;51.978;6.296;2023-01-15T22:54:57;5.60;99.90
49441;DHT22;35317;51.978;6.296;2023-01-15T22:59:58;5.60;99.90
49441;DHT22;35317;51.978;6.296;2023-01-15T23:04:59;5.70;99.90
49441;DHT22;35317;51.978;6.296;2023-01-15T23:09:59;5.80;99.90
49441;DHT22;35317;51.978;6.296;2023-01-15T23:15:00;5.80;99.90
49441;DHT22;35317;51.978;6.296;2023-01-15T23:20:01;5.80;99.90
49441;DHT22;35317;51.978;6.296;2023-01-15T23:25:02;5.90;99.90
49441;DHT22;35317;51.978;6.296;2023-01-15T23:30:04;5.90;99.90
49441;DHT22;35317;51.978;6.296;2023-01-15T23:35:06;5.90;99.90
49441;DHT22;35317;51.978;6.296;2023-01-15T23:40:08;5.90;99.90
49441;DHT22;35317;51.978;6.296;2023-01-15T23:45:10;6.00;99.90
49441;DHT22;35317;51.978;6.296;2023-01-15T23:50:29;6.10;99.90
49441;DHT22;35317;51.978;6.296;2023-01-15T23:55:30;6.20;99.90
